sensor_id;sensor_type;location;lat;lon;timestamp;temperature;humidity
74368;DHT22;64991;41.090;-8.118;2023-07-24T00:02:43;25.50;75.90
74368;DHT22;64991;41.090;-8.118;2023-07-24T00:07:48;25.50;75.90
74368;DHT22;64991;41.090;-8.118;2023-07-24T00:12:52;25.50;76.10
74368;DHT22;64991;41.090;-8.118;2023-07-24T00:17:55;25.50;76.10
74368;DHT22;64991;41.090;-8.118;2023-07-24T00:23:00;25.50;76.10
74368;DHT22;64991;41.090;-8.118;2023-07-24T00:28:04;25.60;76.20
74368;DHT22;64991;41.090;-8.118;2023-07-24T00:33:07;25.50;76.30
74368;DHT22;64991;41.090;-8.118;2023-07-24T00:38:12;25.60;75.90
74368;DHT22;64991;41.090;-8.118;2023-07-24T00:43:16;25.50;76.20
74368;DHT22;64991;41.090;-8.118;2023-07-24T00:48:19;25.60;76.10
74368;DHT22;64991;41.090;-8.118;2023-07-24T00:53:24;25.50;76.10
74368;DHT22;64991;41.090;-8.118;2023-07-24T00:58:27;25.60;76.40
74368;DHT22;64991;41.090;-8.118;2023-07-24T01:03:32;25.50;76.30
74368;DHT22;64991;41.090;-8.118;2023-07-24T01:08:38;25.60;76.30
74368;DHT22;64991;41.090;-8.118;2023-07-24T01:13:42;25.50;76.30
74368;DHT22;64991;41.090;-8.118;2023-07-24T01:18:49;25.50;76.50
74368;DHT22;64991;41.090;-8.118;2023-07-24T01:24:19;25.50;76.40
74368;DHT22;64991;41.090;-8.118;2023-07-24T01:29:28;25.50;76.40
74368;DHT22;64991;41.090;-8.118;2023-07-24T01:34:31;25.50;76.60
74368;DHT22;64991;41.090;-8.118;2023-07-24T01:39:35;25.50;76.30
74368;DHT22;64991;41.090;-8.118;2023-07-24T01:44:40;25.50;76.80
74368;DHT22;64991;41.090;-8.118;2023-07-24T01:50:01;25.50;76.60
74368;DHT22;64991;41.090;-8.118;2023-07-24T01:55:05;25.60;76.70
74368;DHT22;64991;41.090;-8.118;2023-07-24T02:00:11;25.40;76.70
74368;DHT22;64991;41.090;-8.118;2023-07-24T02:05:15;25.50;76.90
74368;DHT22;64991;41.090;-8.118;2023-07-24T02:10:18;25.60;76.90
74368;DHT22;64991;41.090;-8.118;2023-07-24T02:15:23;25.50;76.90
74368;DHT22;64991;41.090;-8.118;2023-07-24T02:20:26;25.50;77.00
74368;DHT22;64991;41.090;-8.118;2023-07-24T02:25:30;25.50;76.90
74368;DHT22;64991;41.090;-8.118;2023-07-24T02:30:38;25.50;77.20
74368;DHT22;64991;41.090;-8.118;2023-07-24T02:35:42;25.50;77.20
74368;DHT22;64991;41.090;-8.118;2023-07-24T02:40:45;25.50;77.20
74368;DHT22;64991;41.090;-8.118;2023-07-24T02:45:50;25.50;77.30
74368;DHT22;64991;41.090;-8.118;2023-07-24T02:50:54;25.50;77.10
74368;DHT22;64991;41.090;-8.118;2023-07-24T02:56:15;25.40;77.40
74368;DHT22;64991;41.090;-8.118;2023-07-24T03:01:20;25.50;77.40
74368;DHT22;64991;41.090;-8.118;2023-07-24T03:06:23;25.50;77.50
74368;DHT22;64991;41.090;-8.118;2023-07-24T03:11:28;25.50;77.50
74368;DHT22;64991;41.090;-8.118;2023-07-24T03:16:33;25.50;77.60
74368;DHT22;64991;41.090;-8.118;2023-07-24T03:21:37;25.50;77.30
74368;DHT22;64991;41.090;-8.118;2023-07-24T03:26:40;25.50;77.50
74368;DHT22;64991;41.090;-8.118;2023-07-24T03:31:45;25.40;77.50
74368;DHT22;64991;41.090;-8.118;2023-07-24T03:36:49;25.50;77.60
74368;DHT22;64991;41.090;-8.118;2023-07-24T03:41:53;25.50;77.80
74368;DHT22;64991;41.090;-8.118;2023-07-24T03:46:57;25.50;77.60
74368;DHT22;64991;41.090;-8.118;2023-07-24T03:52:01;25.50;77.70
74368;DHT22;64991;41.090;-8.118;2023-07-24T03:57:05;25.50;77.80
74368;DHT22;64991;41.090;-8.118;2023-07-24T04:02:10;25.50;77.80
74368;DHT22;64991;41.090;-8.118;2023-07-24T04:07:13;25.40;78.10
74368;DHT22;64991;41.090;-8.118;2023-07-24T04:12:17;25.50;78.20
74368;DHT22;64991;41.090;-8.118;2023-07-24T04:17:22;25.40;78.10
74368;DHT22;64991;41.090;-8.118;2023-07-24T04:22:26;25.50;77.80
74368;DHT22;64991;41.090;-8.118;2023-07-24T04:27:29;25.40;78.00
74368;DHT22;64991;41.090;-8.118;2023-07-24T04:32:34;25.50;77.90
74368;DHT22;64991;41.090;-8.118;2023-07-24T04:37:38;25.40;78.10
74368;DHT22;64991;41.090;-8.118;2023-07-24T04:42:41;25.50;78.00
74368;DHT22;64991;41.090;-8.118;2023-07-24T04:47:46;25.50;78.00
74368;DHT22;64991;41.090;-8.118;2023-07-24T04:52:50;25.50;78.00
74368;DHT22;64991;41.090;-8.118;2023-07-24T04:57:53;25.50;78.20
74368;DHT22;64991;41.090;-8.118;2023-07-24T05:02:58;25.50;78.10
74368;DHT22;64991;41.090;-8.118;2023-07-24T05:08:02;25.40;78.00
74368;DHT22;64991;41.090;-8.118;2023-07-24T05:13:06;25.50;78.30
74368;DHT22;64991;41.090;-8.118;2023-07-24T05:18:14;25.50;78.10
74368;DHT22;64991;41.090;-8.118;2023-07-24T05:23:18;25.40;78.10
74368;DHT22;64991;41.090;-8.118;2023-07-24T05:28:21;25.50;78.20
74368;DHT22;64991;41.090;-8.118;2023-07-24T05:33:26;25.50;78.20
74368;DHT22;64991;41.090;-8.118;2023-07-24T05:38:47;25.40;78.10
74368;DHT22;64991;41.090;-8.118;2023-07-24T05:43:51;25.40;78.30
74368;DHT22;64991;41.090;-8.118;2023-07-24T05:48:55;25.40;78.50
74368;DHT22;64991;41.090;-8.118;2023-07-24T05:53:59;25.50;78.40
74368;DHT22;64991;41.090;-8.118;2023-07-24T05:59:02;25.40;78.40
74368;DHT22;64991;41.090;-8.118;2023-07-24T06:04:07;25.40;78.40
74368;DHT22;64991;41.090;-8.118;2023-07-24T06:09:11;25.50;78.50
74368;DHT22;64991;41.090;-8.118;2023-07-24T06:14:14;25.40;78.30
74368;DHT22;64991;41.090;-8.118;2023-07-24T06:19:19;25.40;78.70
74368;DHT22;64991;41.090;-8.118;2023-07-24T06:24:23;25.40;78.60
74368;DHT22;64991;41.090;-8.118;2023-07-24T06:29:26;25.40;78.50
74368;DHT22;64991;41.090;-8.118;2023-07-24T06:34:31;25.50;78.30
74368;DHT22;64991;41.090;-8.118;2023-07-24T06:39:35;25.40;78.40
74368;DHT22;64991;41.090;-8.118;2023-07-24T06:44:39;25.40;78.70
74368;DHT22;64991;41.090;-8.118;2023-07-24T06:49:44;25.50;78.70
74368;DHT22;64991;41.090;-8.118;2023-07-24T06:55:06;25.40;78.60
74368;DHT22;64991;41.090;-8.118;2023-07-24T07:00:27;25.40;78.40
74368;DHT22;64991;41.090;-8.118;2023-07-24T07:05:32;25.40;78.60
74368;DHT22;64991;41.090;-8.118;2023-07-24T07:10:36;25.40;78.50
74368;DHT22;64991;41.090;-8.118;2023-07-24T07:15:39;25.30;78.80
74368;DHT22;64991;41.090;-8.118;2023-07-24T07:20:46;25.40;79.00
74368;DHT22;64991;41.090;-8.118;2023-07-24T07:25:50;25.40;78.60
74368;DHT22;64991;41.090;-8.118;2023-07-24T07:30:54;25.40;78.70
74368;DHT22;64991;41.090;-8.118;2023-07-24T07:35:59;25.40;79.00
74368;DHT22;64991;41.090;-8.118;2023-07-24T07:41:03;25.40;78.70
74368;DHT22;64991;41.090;-8.118;2023-07-24T07:46:07;25.30;78.80
74368;DHT22;64991;41.090;-8.118;2023-07-24T07:51:12;25.30;78.80
74368;DHT22;64991;41.090;-8.118;2023-07-24T07:56:15;25.30;78.90
74368;DHT22;64991;41.090;-8.118;2023-07-24T08:01:19;25.40;78.80
74368;DHT22;64991;41.090;-8.118;2023-07-24T08:06:24;25.40;78.60
74368;DHT22;64991;41.090;-8.118;2023-07-24T08:11:45;25.40;78.50
74368;DHT22;64991;41.090;-8.118;2023-07-24T08:16:49;25.40;78.70
74368;DHT22;64991;41.090;-8.118;2023-07-24T08:21:54;25.40;78.80
74368;DHT22;64991;41.090;-8.118;2023-07-24T08:26:57;25.40;78.50
74368;DHT22;64991;41.090;-8.118;2023-07-24T08:32:00;25.40;78.60
74368;DHT22;64991;41.090;-8.118;2023-07-24T08:37:06;25.40;78.60
74368;DHT22;64991;41.090;-8.118;2023-07-24T08:42:10;25.40;78.60
74368;DHT22;64991;41.090;-8.118;2023-07-24T08:47:14;25.40;78.50
74368;DHT22;64991;41.090;-8.118;2023-07-24T08:52:19;25.40;78.60
74368;DHT22;64991;41.090;-8.118;2023-07-24T08:57:36;25.30;78.70
74368;DHT22;64991;41.090;-8.118;2023-07-24T09:02:40;25.40;78.40
74368;DHT22;64991;41.090;-8.118;2023-07-24T09:08:03;25.30;78.50
74368;DHT22;64991;41.090;-8.118;2023-07-24T09:13:06;25.50;78.60
74368;DHT22;64991;41.090;-8.118;2023-07-24T09:18:11;25.40;78.20
74368;DHT22;64991;41.090;-8.118;2023-07-24T09:23:16;25.40;78.40
74368;DHT22;64991;41.090;-8.118;2023-07-24T09:28:29;25.30;78.30
74368;DHT22;64991;41.090;-8.118;2023-07-24T09:33:36;25.40;78.50
74368;DHT22;64991;41.090;-8.118;2023-07-24T09:38:41;25.40;78.50
74368;DHT22;64991;41.090;-8.118;2023-07-24T09:43:45;25.40;78.50
74368;DHT22;64991;41.090;-8.118;2023-07-24T09:49:06;25.40;78.40
74368;DHT22;64991;41.090;-8.118;2023-07-24T09:54:13;25.40;78.60
74368;DHT22;64991;41.090;-8.118;2023-07-24T09:59:19;25.40;78.80
74368;DHT22;64991;41.090;-8.118;2023-07-24T10:04:24;25.40;78.20
74368;DHT22;64991;41.090;-8.118;2023-07-24T10:09:29;25.40;78.30
74368;DHT22;64991;41.090;-8.118;2023-07-24T10:14:51;25.50;78.30
74368;DHT22;64991;41.090;-8.118;2023-07-24T10:20:01;25.40;78.10
74368;DHT22;64991;41.090;-8.118;2023-07-24T10:25:08;25.40;77.90
74368;DHT22;64991;41.090;-8.118;2023-07-24T10:30:12;25.40;78.10
74368;DHT22;64991;41.090;-8.118;2023-07-24T10:35:36;25.40;78.30
74368;DHT22;64991;41.090;-8.118;2023-07-24T10:40:42;25.50;78.20
74368;DHT22;64991;41.090;-8.118;2023-07-24T10:45:48;25.40;78.00
74368;DHT22;64991;41.090;-8.118;2023-07-24T10:50:53;25.40;78.30
74368;DHT22;64991;41.090;-8.118;2023-07-24T10:56:00;25.40;78.00
74368;DHT22;64991;41.090;-8.118;2023-07-24T11:01:21;25.50;78.10
74368;DHT22;64991;41.090;-8.118;2023-07-24T11:06:24;25.30;78.20
74368;DHT22;64991;41.090;-8.118;2023-07-24T11:11:30;25.40;78.00
74368;DHT22;64991;41.090;-8.118;2023-07-24T11:16:34;25.40;78.10
74368;DHT22;64991;41.090;-8.118;2023-07-24T11:21:38;25.40;77.90
74368;DHT22;64991;41.090;-8.118;2023-07-24T11:26:43;25.30;77.80
74368;DHT22;64991;41.090;-8.118;2023-07-24T11:31:46;25.50;77.70
74368;DHT22;64991;41.090;-8.118;2023-07-24T11:36:58;25.40;77.80
74368;DHT22;64991;41.090;-8.118;2023-07-24T11:42:03;25.40;77.70
74368;DHT22;64991;41.090;-8.118;2023-07-24T11:47:25;25.40;77.80
74368;DHT22;64991;41.090;-8.118;2023-07-24T11:52:37;25.40;77.70
74368;DHT22;64991;41.090;-8.118;2023-07-24T11:57:43;25.40;77.80
74368;DHT22;64991;41.090;-8.118;2023-07-24T12:02:47;25.40;77.80
74368;DHT22;64991;41.090;-8.118;2023-07-24T12:08:08;25.40;77.60
74368;DHT22;64991;41.090;-8.118;2023-07-24T12:13:31;25.40;77.70
74368;DHT22;64991;41.090;-8.118;2023-07-24T12:18:34;25.40;77.70
74368;DHT22;64991;41.090;-8.118;2023-07-24T12:23:37;25.40;77.50
74368;DHT22;64991;41.090;-8.118;2023-07-24T12:28:42;25.40;77.40
74368;DHT22;64991;41.090;-8.118;2023-07-24T12:33:46;25.40;77.50
74368;DHT22;64991;41.090;-8.118;2023-07-24T12:38:49;25.40;77.30
74368;DHT22;64991;41.090;-8.118;2023-07-24T12:44:11;25.40;76.80
74368;DHT22;64991;41.090;-8.118;2023-07-24T12:49:15;25.50;76.70
74368;DHT22;64991;41.090;-8.118;2023-07-24T12:54:36;25.40;76.90
74368;DHT22;64991;41.090;-8.118;2023-07-24T13:00:01;25.40;76.90
74368;DHT22;64991;41.090;-8.118;2023-07-24T13:05:24;25.40;76.80
74368;DHT22;64991;41.090;-8.118;2023-07-24T13:10:28;25.50;76.60
74368;DHT22;64991;41.090;-8.118;2023-07-24T13:15:33;25.40;76.50
74368;DHT22;64991;41.090;-8.118;2023-07-24T13:20:36;25.50;76.50
74368;DHT22;64991;41.090;-8.118;2023-07-24T13:25:40;25.40;76.30
74368;DHT22;64991;41.090;-8.118;2023-07-24T13:31:12;25.40;76.50
74368;DHT22;64991;41.090;-8.118;2023-07-24T13:36:16;25.40;76.50
74368;DHT22;64991;41.090;-8.118;2023-07-24T13:41:19;25.40;76.30
74368;DHT22;64991;41.090;-8.118;2023-07-24T13:46:42;25.40;76.30
74368;DHT22;64991;41.090;-8.118;2023-07-24T13:51:45;25.40;76.10
74368;DHT22;64991;41.090;-8.118;2023-07-24T13:56:49;25.30;76.30
74368;DHT22;64991;41.090;-8.118;2023-07-24T14:01:54;25.40;75.90
74368;DHT22;64991;41.090;-8.118;2023-07-24T14:06:57;25.40;75.70
74368;DHT22;64991;41.090;-8.118;2023-07-24T14:12:01;25.40;75.70
74368;DHT22;64991;41.090;-8.118;2023-07-24T14:17:06;25.50;75.80
74368;DHT22;64991;41.090;-8.118;2023-07-24T14:22:10;25.40;76.00
74368;DHT22;64991;41.090;-8.118;2023-07-24T14:27:33;25.40;75.90
74368;DHT22;64991;41.090;-8.118;2023-07-24T14:32:38;25.40;75.60
74368;DHT22;64991;41.090;-8.118;2023-07-24T14:37:41;25.50;75.70
74368;DHT22;64991;41.090;-8.118;2023-07-24T14:42:45;25.40;75.50
74368;DHT22;64991;41.090;-8.118;2023-07-24T14:47:49;25.40;75.50
74368;DHT22;64991;41.090;-8.118;2023-07-24T14:52:53;25.40;75.60
74368;DHT22;64991;41.090;-8.118;2023-07-24T14:57:56;25.40;75.30
74368;DHT22;64991;41.090;-8.118;2023-07-24T15:03:01;25.40;75.40
74368;DHT22;64991;41.090;-8.118;2023-07-24T15:08:05;25.50;75.40
74368;DHT22;64991;41.090;-8.118;2023-07-24T15:13:26;25.40;75.30
74368;DHT22;64991;41.090;-8.118;2023-07-24T15:18:31;25.50;75.50
74368;DHT22;64991;41.090;-8.118;2023-07-24T15:23:36;25.40;75.50
74368;DHT22;64991;41.090;-8.118;2023-07-24T15:28:40;25.40;75.50
74368;DHT22;64991;41.090;-8.118;2023-07-24T15:34:02;25.40;75.70
74368;DHT22;64991;41.090;-8.118;2023-07-24T15:39:07;25.50;75.50
74368;DHT22;64991;41.090;-8.118;2023-07-24T15:44:10;25.40;75.70
74368;DHT22;64991;41.090;-8.118;2023-07-24T15:49:32;25.40;75.60
74368;DHT22;64991;41.090;-8.118;2023-07-24T15:54:53;25.50;75.60
74368;DHT22;64991;41.090;-8.118;2023-07-24T15:59:57;25.40;75.60
74368;DHT22;64991;41.090;-8.118;2023-07-24T16:05:20;25.40;75.50
74368;DHT22;64991;41.090;-8.118;2023-07-24T16:10:42;25.40;75.50
74368;DHT22;64991;41.090;-8.118;2023-07-24T16:15:46;25.40;75.70
74368;DHT22;64991;41.090;-8.118;2023-07-24T16:21:08;25.40;75.40
74368;DHT22;64991;41.090;-8.118;2023-07-24T16:26:11;25.40;75.40
74368;DHT22;64991;41.090;-8.118;2023-07-24T16:31:32;25.40;75.70
74368;DHT22;64991;41.090;-8.118;2023-07-24T16:36:38;25.40;75.50
74368;DHT22;64991;41.090;-8.118;2023-07-24T16:41:42;25.40;75.70
74368;DHT22;64991;41.090;-8.118;2023-07-24T16:46:45;25.40;75.70
74368;DHT22;64991;41.090;-8.118;2023-07-24T16:51:51;25.40;75.70
74368;DHT22;64991;41.090;-8.118;2023-07-24T16:56:55;25.40;75.70
74368;DHT22;64991;41.090;-8.118;2023-07-24T17:01:59;25.40;75.50
74368;DHT22;64991;41.090;-8.118;2023-07-24T17:07:04;25.40;75.70
74368;DHT22;64991;41.090;-8.118;2023-07-24T17:12:08;25.40;75.80
74368;DHT22;64991;41.090;-8.118;2023-07-24T17:17:12;25.40;75.40
74368;DHT22;64991;41.090;-8.118;2023-07-24T17:22:17;25.40;75.70
74368;DHT22;64991;41.090;-8.118;2023-07-24T17:27:21;25.40;75.60
74368;DHT22;64991;41.090;-8.118;2023-07-24T17:32:42;25.40;75.60
74368;DHT22;64991;41.090;-8.118;2023-07-24T17:37:48;25.40;75.80
74368;DHT22;64991;41.090;-8.118;2023-07-24T17:42:52;25.30;75.40
74368;DHT22;64991;41.090;-8.118;2023-07-24T17:47:55;25.50;75.40
74368;DHT22;64991;41.090;-8.118;2023-07-24T17:53:18;25.40;75.70
74368;DHT22;64991;41.090;-8.118;2023-07-24T17:58:21;25.40;75.70
74368;DHT22;64991;41.090;-8.118;2023-07-24T18:03:25;25.40;75.60
74368;DHT22;64991;41.090;-8.118;2023-07-24T18:08:30;25.40;75.50
74368;DHT22;64991;41.090;-8.118;2023-07-24T18:13:33;25.40;75.60
74368;DHT22;64991;41.090;-8.118;2023-07-24T18:18:37;25.40;75.90
74368;DHT22;64991;41.090;-8.118;2023-07-24T18:23:42;25.40;75.60
74368;DHT22;64991;41.090;-8.118;2023-07-24T18:28:45;25.40;75.60
74368;DHT22;64991;41.090;-8.118;2023-07-24T18:33:49;25.50;75.70
74368;DHT22;64991;41.090;-8.118;2023-07-24T18:38:53;25.40;75.90
74368;DHT22;64991;41.090;-8.118;2023-07-24T18:43:57;25.40;76.00
74368;DHT22;64991;41.090;-8.118;2023-07-24T18:49:00;25.40;75.80
74368;DHT22;64991;41.090;-8.118;2023-07-24T18:54:05;25.50;75.70
74368;DHT22;64991;41.090;-8.118;2023-07-24T18:59:09;25.50;75.50
74368;DHT22;64991;41.090;-8.118;2023-07-24T19:04:12;25.40;75.70
74368;DHT22;64991;41.090;-8.118;2023-07-24T19:09:17;25.40;75.60
74368;DHT22;64991;41.090;-8.118;2023-07-24T19:14:21;25.40;75.70
74368;DHT22;64991;41.090;-8.118;2023-07-24T19:19:24;25.50;75.60
74368;DHT22;64991;41.090;-8.118;2023-07-24T19:24:29;25.40;75.50
74368;DHT22;64991;41.090;-8.118;2023-07-24T19:29:33;25.40;75.30
74368;DHT22;64991;41.090;-8.118;2023-07-24T19:34:36;25.50;75.80
74368;DHT22;64991;41.090;-8.118;2023-07-24T19:39:41;25.40;75.70
74368;DHT22;64991;41.090;-8.118;2023-07-24T19:45:02;25.40;76.10
74368;DHT22;64991;41.090;-8.118;2023-07-24T19:50:06;25.40;76.20
74368;DHT22;64991;41.090;-8.118;2023-07-24T19:55:11;25.40;76.30
74368;DHT22;64991;41.090;-8.118;2023-07-24T20:00:32;25.30;76.30
74368;DHT22;64991;41.090;-8.118;2023-07-24T20:05:36;25.40;76.10
74368;DHT22;64991;41.090;-8.118;2023-07-24T20:10:41;25.40;76.20
74368;DHT22;64991;41.090;-8.118;2023-07-24T20:16:02;25.40;76.00
74368;DHT22;64991;41.090;-8.118;2023-07-24T20:21:06;25.40;75.90
74368;DHT22;64991;41.090;-8.118;2023-07-24T20:26:11;25.40;76.00
74368;DHT22;64991;41.090;-8.118;2023-07-24T20:31:17;25.40;76.30
74368;DHT22;64991;41.090;-8.118;2023-07-24T20:36:20;25.40;76.10
74368;DHT22;64991;41.090;-8.118;2023-07-24T20:41:25;25.40;76.20
74368;DHT22;64991;41.090;-8.118;2023-07-24T20:46:29;25.40;75.90
74368;DHT22;64991;41.090;-8.118;2023-07-24T20:51:33;25.40;76.00
74368;DHT22;64991;41.090;-8.118;2023-07-24T20:56:38;25.40;76.00
74368;DHT22;64991;41.090;-8.118;2023-07-24T21:01:42;25.40;76.10
74368;DHT22;64991;41.090;-8.118;2023-07-24T21:06:45;25.40;76.10
74368;DHT22;64991;41.090;-8.118;2023-07-24T21:11:52;25.30;76.10
74368;DHT22;64991;41.090;-8.118;2023-07-24T21:16:55;25.40;75.90
74368;DHT22;64991;41.090;-8.118;2023-07-24T21:22:17;25.40;76.00
74368;DHT22;64991;41.090;-8.118;2023-07-24T21:27:22;25.30;76.20
74368;DHT22;64991;41.090;-8.118;2023-07-24T21:32:43;25.30;76.10
74368;DHT22;64991;41.090;-8.118;2023-07-24T21:37:47;25.30;75.90
74368;DHT22;64991;41.090;-8.118;2023-07-24T21:42:52;25.30;76.10
74368;DHT22;64991;41.090;-8.118;2023-07-24T21:47:56;25.30;76.10
74368;DHT22;64991;41.090;-8.118;2023-07-24T21:53:01;25.30;76.00
74368;DHT22;64991;41.090;-8.118;2023-07-24T21:58:10;25.30;76.10
74368;DHT22;64991;41.090;-8.118;2023-07-24T22:03:14;25.30;76.20
74368;DHT22;64991;41.090;-8.118;2023-07-24T22:08:17;25.30;76.20
74368;DHT22;64991;41.090;-8.118;2023-07-24T22:13:22;25.30;76.10
74368;DHT22;64991;41.090;-8.118;2023-07-24T22:18:26;25.30;76.30
74368;DHT22;64991;41.090;-8.118;2023-07-24T22:23:30;25.40;75.90
74368;DHT22;64991;41.090;-8.118;2023-07-24T22:28:36;25.30;76.20
74368;DHT22;64991;41.090;-8.118;2023-07-24T22:33:39;25.30;76.00
74368;DHT22;64991;41.090;-8.118;2023-07-24T22:38:43;25.30;76.00
74368;DHT22;64991;41.090;-8.118;2023-07-24T22:44:07;25.30;75.90
74368;DHT22;64991;41.090;-8.118;2023-07-24T22:49:11;25.20;76.30
74368;DHT22;64991;41.090;-8.118;2023-07-24T22:54:14;25.20;76.20
74368;DHT22;64991;41.090;-8.118;2023-07-24T22:59:20;25.30;76.20
74368;DHT22;64991;41.090;-8.118;2023-07-24T23:04:25;25.20;76.30
74368;DHT22;64991;41.090;-8.118;2023-07-24T23:09:28;25.20;76.30
74368;DHT22;64991;41.090;-8.118;2023-07-24T23:14:33;25.20;76.20
74368;DHT22;64991;41.090;-8.118;2023-07-24T23:19:55;25.30;76.10
74368;DHT22;64991;41.090;-8.118;2023-07-24T23:24:58;25.20;76.20
74368;DHT22;64991;41.090;-8.118;2023-07-24T23:30:04;25.20;76.00
74368;DHT22;64991;41.090;-8.118;2023-07-24T23:35:09;25.20;76.10
74368;DHT22;64991;41.090;-8.118;2023-07-24T23:40:13;25.20;76.00
74368;DHT22;64991;41.090;-8.118;2023-07-24T23:45:18;25.30;76.10
74368;DHT22;64991;41.090;-8.118;2023-07-24T23:50:21;25.30;76.10
74368;DHT22;64991;41.090;-8.118;2023-07-24T23:55:42;25.30;76.20
